Time;durP1;ratioP1;P1;durP2;ratioP2;P2;SDS_P1;SDS_P2;PMS_P1;PMS_P2;Temp;Humidity;BMP_temperature;BMP_pressure;BME280_temperature;BME280_humidity;BME280_pressure;Samples;Min_cycle;Max_cycle;Signal;HPM_P1;HPM_P2
2022/11/04 00:01:45;;;;;;;0.60;0.27;;;12.10;99.90;;;;;;4973525;28;20849;-73
2022/11/04 00:04:15;;;;;;;0.57;0.20;;;12.10;99.90;;;;;;4973256;28;20454;-71
2022/11/04 00:06:44;;;;;;;0.50;0.10;;;12.00;99.90;;;;;;4973290;28;20540;-73
2022/11/04 00:09:15;;;;;;;0.50;0.20;;;12.20;99.90;;;;;;4973634;28;20446;-72
2022/11/04 00:14:30;;;;;;;0.87;0.57;;;12.20;99.90;;;;;;4973194;28;20446;-71
2022/11/04 00:17:18;;;;;;;0.60;0.47;;;12.10;99.90;;;;;;4972876;28;20470;-72
2022/11/04 00:30:55;;;;;;;0.63;0.60;;;12.20;99.90;;;;;;4971623;28;20446;-73
2022/11/04 00:33:25;;;;;;;0.50;0.10;;;12.20;97.40;;;;;;4972232;28;20501;-71
2022/11/04 00:35:55;;;;;;;1.73;0.43;;;10.00;96.40;;;;;;4972266;28;20505;-72
2022/11/04 00:38:24;;;;;;;0.97;0.53;;;12.20;95.10;;;;;;4972424;28;20781;-70
2022/11/04 00:40:52;;;;;;;0.50;0.20;;;12.20;95.20;;;;;;4972627;28;20446;-71
2022/11/04 00:43:20;;;;;;;0.50;0.10;;;12.20;99.70;;;;;;4973165;28;20477;-70
2022/11/04 00:45:48;;;;;;;0.60;0.47;;;12.20;99.90;;;;;;4973108;28;20452;-72
2022/11/04 00:48:16;;;;;;;1.17;0.37;;;12.30;99.90;;;;;;4972914;28;20502;-72
2022/11/04 00:50:43;;;;;;;2.03;1.07;;;12.30;99.90;;;;;;4973363;28;20501;-72
2022/11/04 00:53:11;;;;;;;0.60;0.30;;;12.30;99.90;;;;;;4973127;28;20481;-74
2022/11/04 00:55:40;;;;;;;0.50;0.10;;;12.20;98.60;;;;;;4973277;28;20446;-71
2022/11/04 00:58:08;;;;;;;0.50;0.10;;;12.20;99.90;;;;;;4972787;28;20466;-74
2022/11/04 05:02:39;;;;;;;0.60;0.10;;;11.30;1.00;;;;;;5038553;23;20591;-71
2022/11/04 05:05:08;;;;;;;0.50;0.10;;;11.20;1.00;;;;;;4935812;29;20448;-72
2022/11/04 05:07:36;;;;;;;0.50;0.10;;;11.10;1.00;;;;;;4927056;29;20848;-72
2022/11/04 05:10:04;;;;;;;0.60;0.10;;;11.10;1.00;;;;;;4935453;29;20448;-73
2022/11/04 05:15:16;;;;;;;0.50;0.10;;;11.10;1.00;;;;;;4934333;29;20456;-70
2022/11/04 05:17:45;;;;;;;0.53;0.10;;;11.10;1.00;;;;;;4935377;29;20503;-71
2022/11/04 05:20:13;;;;;;;0.50;0.10;;;11.10;1.00;;;;;;4935429;29;20973;-71
2022/11/04 05:22:41;;;;;;;0.50;0.10;;;11.10;1.00;;;;;;4935162;29;20551;-71
2022/11/04 05:25:09;;;;;;;0.70;0.27;;;11.10;1.00;;;;;;4935456;29;20447;-71
2022/11/04 05:27:36;;;;;;;0.50;0.10;;;11.10;1.00;;;;;;4938685;29;20484;-71
2022/11/04 05:30:05;;;;;;;0.50;0.10;;;11.10;1.00;;;;;;4931524;29;20453;-71
2022/11/04 05:32:33;;;;;;;0.50;0.10;;;11.10;1.00;;;;;;4925005;29;20500;-71
2022/11/04 05:35:02;;;;;;;0.60;0.20;;;11.00;1.00;;;;;;4919953;29;20504;-72
2022/11/04 05:37:30;;;;;;;0.50;0.10;;;10.80;1.00;;;;;;4931862;29;20859;-74
2022/11/04 05:39:58;;;;;;;0.60;0.20;;;10.90;1.00;;;;;;4939201;29;20459;-76
2022/11/04 05:42:25;;;;;;;0.60;0.10;;;10.90;1.00;;;;;;4939691;29;20464;-71
2022/11/04 05:44:53;;;;;;;0.50;0.10;;;10.90;1.00;;;;;;4942730;29;20479;-71
2022/11/04 05:47:21;;;;;;;0.50;0.20;;;10.90;1.00;;;;;;4943447;29;20530;-71
2022/11/04 05:49:49;;;;;;;0.60;0.20;;;10.90;1.00;;;;;;4944737;29;21005;-71
2022/11/04 05:52:18;;;;;;;0.60;0.10;;;10.80;1.00;;;;;;4943061;29;20618;-72
2022/11/04 05:54:46;;;;;;;0.50;0.10;;;10.80;1.00;;;;;;4939862;29;20519;-71
2022/11/04 05:57:14;;;;;;;0.50;0.10;;;;;;;;;;4939535;29;20455;-71
2022/11/04 05:59:42;;;;;;;0.50;0.10;;;10.80;1.00;;;;;;4939467;29;20499;-71
2022/11/04 06:02:09;;;;;;;0.50;0.10;;;10.80;1.00;;;;;;4939035;29;21057;-71
2022/11/04 06:04:38;;;;;;;0.50;0.10;;;;;;;;;;4938703;29;21053;-71
2022/11/04 06:07:06;;;;;;;0.50;0.10;;;10.90;1.00;;;;;;4936470;29;20886;-71
2022/11/04 06:09:39;;;;;;;0.50;0.10;;;10.90;1.00;;;;;;4933473;29;20456;-70
2022/11/04 06:12:08;;;;;;;0.50;0.10;;;10.90;1.00;;;;;;4932184;29;20523;-71
2022/11/04 06:14:36;;;;;;;0.50;0.10;;;10.90;1.00;;;;;;4939337;29;20511;-71
2022/11/04 06:17:04;;;;;;;0.50;0.10;;;10.90;1.00;;;;;;4940603;29;21039;-71
2022/11/04 06:19:32;;;;;;;0.50;0.10;;;10.90;1.00;;;;;;4940094;29;20957;-70
2022/11/04 06:22:00;;;;;;;0.50;0.10;;;10.90;1.00;;;;;;4937223;29;20535;-73
2022/11/04 06:24:28;;;;;;;0.50;0.10;;;10.90;1.00;;;;;;4920566;29;20855;-71
2022/11/04 06:26:57;;;;;;;0.50;0.10;;;11.00;1.00;;;;;;4933237;29;20519;-72
2022/11/04 06:29:25;;;;;;;0.50;0.10;;;11.00;1.00;;;;;;4938489;29;20491;-70
2022/11/04 06:31:53;;;;;;;0.50;0.10;;;;;;;;;;4938750;29;20609;-70
2022/11/04 06:34:21;;;;;;;0.50;0.10;;;11.10;1.00;;;;;;4938559;29;20989;-71
2022/11/04 06:36:49;;;;;;;0.50;0.10;;;11.20;1.00;;;;;;4938842;29;20509;-71
2022/11/04 06:39:17;;;;;;;0.50;0.10;;;11.20;1.00;;;;;;4938910;29;20491;-73
2022/11/04 06:41:44;;;;;;;0.60;0.10;;;11.20;1.00;;;;;;4940609;29;20523;-71
2022/11/04 06:44:19;;;;;;;0.50;0.10;;;11.30;1.00;;;;;;4939279;29;20945;-71
2022/11/04 06:46:47;;;;;;;0.50;0.10;;;11.30;1.00;;;;;;4939682;29;20463;-72
2022/11/04 06:49:17;;;;;;;0.50;0.10;;;11.30;1.00;;;;;;4938077;29;20535;-72
2022/11/04 06:51:45;;;;;;;0.50;0.10;;;11.30;1.00;;;;;;4937372;29;20543;-72
2022/11/04 06:54:13;;;;;;;0.50;0.10;;;11.30;1.00;;;;;;4938373;29;20921;-72
2022/11/04 06:56:41;;;;;;;0.50;0.10;;;11.30;1.00;;;;;;4940038;29;20976;-72
2022/11/04 06:59:14;;;;;;;2.67;2.57;;;11.30;1.00;;;;;;4939100;29;20460;-71
2022/11/04 07:01:44;;;;;;;0.50;0.10;;;11.30;1.00;;;;;;4937811;29;20488;-73
2022/11/04 07:04:13;;;;;;;0.60;0.10;;;11.40;1.00;;;;;;4938752;29;20435;-73
2022/11/04 07:06:42;;;;;;;0.53;0.20;;;11.40;1.00;;;;;;4938279;29;20448;-73
2022/11/04 07:09:13;;;;;;;0.50;0.10;;;11.40;1.00;;;;;;4931326;29;21246;-73
2022/11/04 07:11:43;;;;;;;0.50;0.10;;;11.40;1.00;;;;;;4932304;29;20834;-72
2022/11/04 07:14:12;;;;;;;0.60;0.10;;;11.40;1.00;;;;;;4937688;29;20459;-73
2022/11/04 07:16:42;;;;;;;0.50;0.10;;;11.40;1.00;;;;;;4936603;29;20824;-73
2022/11/04 07:19:11;;;;;;;0.50;0.10;;;11.40;1.00;;;;;;4936491;29;20432;-74
2022/11/04 07:21:38;;;;;;;0.50;0.10;;;11.40;1.00;;;;;;4935904;29;20475;-72
2022/11/04 07:24:07;;;;;;;0.60;0.10;;;11.40;1.00;;;;;;4935624;29;20947;-74
2022/11/04 07:26:35;;;;;;;0.60;0.20;;;11.50;1.00;;;;;;4936291;29;20444;-73
2022/11/04 07:29:04;;;;;;;0.50;0.10;;;11.40;1.00;;;;;;4936133;29;20515;-76
2022/11/04 07:31:32;;;;;;;0.50;0.10;;;11.30;1.00;;;;;;4935938;29;20471;-75
2022/11/04 07:34:01;;;;;;;0.60;0.10;;;11.30;1.00;;;;;;4935961;29;21147;-75
2022/11/04 07:36:31;;;;;;;0.50;0.10;;;11.30;1.00;;;;;;4936897;29;20511;-76
2022/11/04 07:38:59;;;;;;;0.50;0.10;;;11.30;1.00;;;;;;4936719;29;20479;-77
2022/11/04 07:41:28;;;;;;;0.60;0.40;;;11.30;1.00;;;;;;4936478;29;20527;-76
2022/11/04 07:43:57;;;;;;;0.50;0.10;;;11.30;1.00;;;;;;4937583;29;20818;-75
2022/11/04 07:46:25;;;;;;;0.50;0.10;;;11.30;1.00;;;;;;4936186;29;20487;-76
2022/11/04 07:48:56;;;;;;;0.60;0.30;;;11.30;1.00;;;;;;4935258;29;20505;-75
2022/11/04 07:51:24;;;;;;;7.30;3.70;;;11.40;1.00;;;;;;4935732;29;20587;-76
2022/11/04 07:53:55;;;;;;;1.77;1.67;;;11.30;1.00;;;;;;4935743;29;20460;-75
2022/11/04 07:56:23;;;;;;;0.50;0.10;;;11.40;1.00;;;;;;4936119;29;20507;-75
2022/11/04 07:58:51;;;;;;;0.50;0.10;;;11.40;1.00;;;;;;4931129;29;20492;-73
2022/11/04 08:01:22;;;;;;;0.50;0.10;;;11.50;1.00;;;;;;4916471;29;20547;-76
2022/11/04 08:03:52;;;;;;;0.50;0.20;;;11.50;1.00;;;;;;4920266;29;20456;-75
2022/11/04 08:06:21;;;;;;;0.50;0.10;;;11.50;1.00;;;;;;4936722;29;20456;-78
2022/11/04 08:08:52;;;;;;;0.50;0.10;;;11.60;1.00;;;;;;4935679;29;20490;-75
2022/11/04 08:11:27;;;;;;;0.50;0.10;;;11.50;1.00;;;;;;4935130;29;20499;-75
2022/11/04 08:13:55;;;;;;;0.50;0.10;;;11.60;1.00;;;;;;4935137;29;20455;-77
2022/11/04 08:16:25;;;;;;;0.50;0.10;;;11.60;1.00;;;;;;4935214;29;20459;-74
2022/11/04 08:19:01;;;;;;;0.50;0.10;;;11.70;1.00;;;;;;4935563;29;20443;-75
2022/11/04 08:21:30;;;;;;;0.60;0.40;;;11.70;1.00;;;;;;4935516;29;20472;-77
2022/11/04 08:23:58;;;;;;;0.60;0.10;;;11.70;1.00;;;;;;4933069;29;20473;-76
2022/11/04 08:26:27;;;;;;;0.50;0.10;;;11.70;1.00;;;;;;4924917;29;20461;-76
2022/11/04 08:28:56;;;;;;;0.50;0.10;;;11.80;1.00;;;;;;4934583;29;20913;-75
2022/11/04 08:31:25;;;;;;;0.60;0.10;;;11.80;1.00;;;;;;4926675;29;20472;-76
2022/11/04 08:33:54;;;;;;;0.53;0.10;;;11.70;1.00;;;;;;4935217;29;20507;-75
2022/11/04 08:36:24;;;;;;;0.60;0.10;;;11.70;1.00;;;;;;4935418;29;20456;-75
2022/11/04 08:38:53;;;;;;;0.50;0.10;;;11.60;1.00;;;;;;4930442;29;20970;-75
2022/11/04 08:41:23;;;;;;;0.60;0.10;;;11.60;1.00;;;;;;4931663;29;20473;-75
2022/11/04 08:43:52;;;;;;;0.50;0.20;;;11.50;1.00;;;;;;4933483;29;20448;-74
2022/11/04 08:46:20;;;;;;;0.60;0.20;;;11.60;1.00;;;;;;4938928;29;20452;-75
2022/11/04 08:48:49;;;;;;;0.50;0.20;;;11.50;1.00;;;;;;4940150;29;20495;-74
2022/11/04 08:51:19;;;;;;;0.60;0.40;;;11.50;1.00;;;;;;4938130;29;20866;-78
2022/11/04 08:53:47;;;;;;;0.60;0.20;;;11.50;1.00;;;;;;4937405;29;20511;-76
2022/11/04 08:56:18;;;;;;;0.60;0.10;;;11.50;1.00;;;;;;4936702;29;20452;-77
2022/11/04 08:58:46;;;;;;;0.60;0.20;;;11.50;1.00;;;;;;4934560;29;20451;-76
2022/11/04 09:01:16;;;;;;;0.50;0.20;;;11.50;1.00;;;;;;4936962;29;20479;-76
2022/11/04 09:03:44;;;;;;;0.57;0.10;;;11.60;1.00;;;;;;4939719;29;20461;-77
2022/11/04 09:06:14;;;;;;;0.50;0.10;;;10.80;1.00;;;;;;4936371;29;20459;-75
2022/11/04 09:08:43;;;;;;;0.50;0.10;;;11.60;1.00;;;;;;4935801;29;20451;-75
2022/11/04 09:11:13;;;;;;;0.50;0.10;;;11.60;1.00;;;;;;4934095;29;20480;-75
2022/11/04 09:13:41;;;;;;;0.50;0.10;;;11.60;1.00;;;;;;4937209;29;20468;-76
2022/11/04 09:16:10;;;;;;;0.50;0.10;;;11.60;1.00;;;;;;4931368;29;20515;-75
2022/11/04 09:18:40;;;;;;;0.50;0.10;;;11.60;1.00;;;;;;4931243;29;21157;-76
2022/11/04 09:21:10;;;;;;;0.50;0.10;;;11.70;1.00;;;;;;4936881;29;20463;-77
2022/11/04 09:23:38;;;;;;;0.50;0.10;;;11.70;1.00;;;;;;4938170;29;20499;-75
2022/11/04 09:26:09;;;;;;;0.50;0.10;;;11.80;1.00;;;;;;4928453;29;20477;-76
2022/11/04 09:28:36;;;;;;;0.50;0.10;;;11.80;1.00;;;;;;4927298;29;20504;-75
2022/11/04 09:31:06;;;;;;;0.50;0.10;;;11.90;1.00;;;;;;4926723;29;20479;-77
2022/11/04 09:33:34;;;;;;;0.50;0.10;;;12.00;1.00;;;;;;4939522;29;20818;-76
2022/11/04 09:36:03;;;;;;;0.50;0.10;;;12.10;1.00;;;;;;4935468;29;20478;-76
2022/11/04 09:38:31;;;;;;;0.57;0.10;;;12.10;1.00;;;;;;4936864;29;20478;-75
2022/11/04 09:41:00;;;;;;;0.50;0.10;;;12.30;1.00;;;;;;4938214;29;21010;-76
2022/11/04 09:43:44;;;;;;;0.60;0.10;;;12.30;1.00;;;;;;4930983;29;20547;-76
2022/11/04 09:46:14;;;;;;;0.57;0.10;;;12.40;1.00;;;;;;4938079;29;20963;-76
2022/11/04 09:48:47;;;;;;;0.60;0.10;;;12.50;1.00;;;;;;4937518;29;20809;-77
2022/11/04 09:51:18;;;;;;;0.50;0.10;;;12.60;1.00;;;;;;4937794;29;20468;-76
2022/11/04 09:54:15;;;;;;;0.60;0.20;;;12.60;1.00;;;;;;4938611;29;20502;-77
2022/11/04 09:56:47;;;;;;;0.57;0.10;;;12.60;1.00;;;;;;4940049;29;20459;-77
2022/11/04 09:59:20;;;;;;;0.50;0.10;;;12.70;1.00;;;;;;4938382;29;20507;-76
2022/11/04 10:02:01;;;;;;;0.60;0.10;;;12.70;1.00;;;;;;4922365;29;21066;-75
2022/11/04 10:04:41;;;;;;;0.60;0.10;;;12.70;1.00;;;;;;4919068;29;20451;-77
2022/11/04 10:07:34;;;;;;;0.60;0.10;;;12.70;1.00;;;;;;4919215;29;20445;-76
2022/11/04 10:10:10;;;;;;;0.57;0.10;;;12.80;1.00;;;;;;4933813;29;20538;-77
2022/11/04 10:13:00;;;;;;;0.60;0.10;;;12.80;1.00;;;;;;4938003;29;20460;-77
2022/11/04 10:15:47;;;;;;;0.80;0.60;;;12.90;1.00;;;;;;4939242;29;20522;-78
2022/11/04 10:18:32;;;;;;;0.60;0.10;;;12.90;1.00;;;;;;4938110;29;20543;-78
2022/11/04 10:21:10;;;;;;;0.60;0.10;;;13.00;1.00;;;;;;4937435;29;20475;-77
2022/11/04 10:23:44;;;;;;;0.60;0.10;;;13.00;1.00;;;;;;4937535;29;20448;-75
2022/11/04 10:26:16;;;;;;;0.60;0.10;;;13.10;1.00;;;;;;4937460;29;20439;-79
2022/11/04 10:28:49;;;;;;;0.60;0.30;;;13.10;1.00;;;;;;4930295;29;20515;-79
2022/11/04 10:31:18;;;;;;;0.60;0.10;;;13.30;1.00;;;;;;4941499;29;20480;-76
2022/11/04 10:33:51;;;;;;;0.60;0.10;;;13.30;1.00;;;;;;4940722;29;20436;-77
2022/11/04 10:36:20;;;;;;;0.60;0.10;;;13.40;1.00;;;;;;4941029;29;20468;-75
2022/11/04 10:38:53;;;;;;;4.10;2.87;;;13.50;1.00;;;;;;4941362;29;20435;-78
2022/11/04 10:41:28;;;;;;;0.60;0.10;;;13.50;1.00;;;;;;4942136;29;21168;-78
2022/11/04 10:43:59;;;;;;;0.60;0.10;;;13.50;1.00;;;;;;4939275;29;20443;-78
2022/11/04 10:46:44;;;;;;;0.60;0.10;;;13.60;1.00;;;;;;4940472;29;20571;-78
2022/11/04 10:49:37;;;;;;;2.60;1.03;;;13.60;1.00;;;;;;4940801;29;20464;-76
2022/11/04 10:52:07;;;;;;;0.60;0.10;;;13.80;1.00;;;;;;4939378;29;20452;-76
2022/11/04 10:54:41;;;;;;;0.60;0.10;;;13.80;1.00;;;;;;4944079;29;20452;-77
2022/11/04 10:57:10;;;;;;;0.60;0.10;;;13.90;1.00;;;;;;4943133;29;20448;-77
2022/11/04 10:59:50;;;;;;;0.60;0.10;;;14.00;1.00;;;;;;4938146;29;20481;-77
2022/11/04 11:02:18;;;;;;;0.60;0.40;;;13.90;1.00;;;;;;4938139;29;20530;-77
2022/11/04 11:04:48;;;;;;;0.60;0.20;;;13.90;1.00;;;;;;4941986;29;20514;-75
2022/11/04 11:07:22;;;;;;;0.60;0.10;;;13.70;1.00;;;;;;4930265;29;20488;-77
2022/11/04 11:09:55;;;;;;;0.60;0.10;;;13.70;1.00;;;;;;4939644;29;20474;-78
2022/11/04 11:12:29;;;;;;;0.60;0.10;;;13.70;1.00;;;;;;4941128;29;20583;-75
2022/11/04 11:15:28;;;;;;;0.60;0.10;;;13.70;1.00;;;;;;4936960;29;20476;-76
2022/11/04 11:18:03;;;;;;;0.60;0.10;;;13.60;1.00;;;;;;4918567;29;20433;-77
2022/11/04 11:20:32;;;;;;;0.60;0.10;;;13.50;1.00;;;;;;4934514;29;20556;-77
2022/11/04 11:23:01;;;;;;;0.80;0.30;;;13.50;1.00;;;;;;4933082;29;20464;-74
2022/11/04 11:25:34;;;;;;;0.60;0.20;;;13.60;1.00;;;;;;4924933;29;20947;-74
2022/11/04 11:28:05;;;;;;;0.60;0.10;;;13.60;1.00;;;;;;4932743;29;20440;-74
2022/11/04 11:30:40;;;;;;;0.60;0.20;;;13.50;1.00;;;;;;4935595;29;20487;-74
2022/11/04 11:33:23;;;;;;;0.60;0.10;;;13.50;1.00;;;;;;4925262;29;20991;-74
2022/11/04 11:35:53;;;;;;;0.60;0.10;;;;;;;;;;4925267;29;20512;-78
2022/11/04 11:38:23;;;;;;;0.60;0.10;;;13.40;1.00;;;;;;4927410;29;20441;-75
2022/11/04 11:40:54;;;;;;;0.60;0.10;;;13.50;1.00;;;;;;4932848;29;20456;-74
2022/11/04 11:43:46;;;;;;;0.60;0.10;;;13.50;1.00;;;;;;4937271;29;20526;-75
2022/11/04 11:46:14;;;;;;;0.60;0.10;;;13.50;1.00;;;;;;4937070;29;20452;-76
2022/11/04 11:48:43;;;;;;;0.60;0.10;;;13.60;1.00;;;;;;4936575;29;20956;-78
2022/11/04 11:51:13;;;;;;;0.60;0.10;;;13.70;1.00;;;;;;4936845;29;20540;-76
2022/11/04 11:54:02;;;;;;;0.60;0.10;;;13.70;1.00;;;;;;4936219;29;20428;-76
2022/11/04 11:56:37;;;;;;;0.60;0.10;;;13.70;1.00;;;;;;4936908;29;20502;-75
2022/11/04 11:59:31;;;;;;;0.60;0.10;;;13.70;1.00;;;;;;4939454;29;20547;-74
2022/11/04 12:02:28;;;;;;;0.60;0.10;;;13.80;1.00;;;;;;4937357;29;20523;-73
2022/11/04 12:04:56;;;;;;;0.60;0.10;;;13.80;1.00;;;;;;4931588;29;20482;-76
2022/11/04 12:07:50;;;;;;;0.60;0.10;;;13.90;1.00;;;;;;4935938;29;20538;-74
2022/11/04 12:10:45;;;;;;;0.60;0.10;;;14.20;1.00;;;;;;4934360;29;20515;-73
2022/11/04 12:13:26;;;;;;;0.60;0.10;;;14.20;1.00;;;;;;4934554;29;20454;-73
2022/11/04 12:16:19;;;;;;;0.60;0.10;;;14.30;1.00;;;;;;4939155;29;20444;-73
2022/11/04 12:19:07;;;;;;;0.60;0.10;;;14.20;1.00;;;;;;4922346;29;21171;-72
2022/11/04 12:21:41;;;;;;;0.60;0.10;;;14.20;1.00;;;;;;4920851;29;20822;-76
2022/11/04 12:24:26;;;;;;;0.60;0.10;;;14.20;1.00;;;;;;4933624;29;20555;-77
2022/11/04 12:27:06;;;;;;;0.60;0.10;;;14.20;1.00;;;;;;4935505;29;20515;-74
2022/11/04 12:29:51;;;;;;;0.60;0.10;;;14.10;1.00;;;;;;4932433;29;20527;-74
2022/11/04 12:32:32;;;;;;;0.60;0.10;;;14.10;1.00;;;;;;4925052;29;20483;-75
2022/11/04 12:35:18;;;;;;;0.60;0.10;;;14.10;1.00;;;;;;4917545;29;20448;-73
2022/11/04 12:37:59;;;;;;;0.60;0.20;;;14.10;1.00;;;;;;4921420;29;20456;-73
2022/11/04 12:40:42;;;;;;;44.50;41.00;;;14.00;1.00;;;;;;4934997;29;20447;-75
2022/11/04 12:43:37;;;;;;;0.60;0.10;;;14.00;1.00;;;;;;4934905;29;20811;-76
2022/11/04 12:46:13;;;;;;;0.60;0.10;;;13.90;1.00;;;;;;4934905;29;20455;-76
2022/11/04 12:49:18;;;;;;;0.60;0.20;;;13.80;1.00;;;;;;4935589;29;21034;-76
2022/11/04 12:51:55;;;;;;;0.60;0.10;;;13.70;1.00;;;;;;4936756;29;20531;-78
2022/11/04 12:54:43;;;;;;;0.60;0.10;;;13.70;1.00;;;;;;4938047;29;20955;-77
2022/11/04 12:57:19;;;;;;;0.60;0.10;;;13.70;1.00;;;;;;4934829;29;20476;-77
2022/11/04 13:00:00;;;;;;;0.60;0.10;;;13.70;1.00;;;;;;4937574;29;20457;-75
2022/11/04 13:02:33;;;;;;;0.60;0.10;;;13.80;1.00;;;;;;4936415;29;20481;-78
2022/11/04 13:05:09;;;;;;;0.60;0.10;;;13.80;1.00;;;;;;4936315;29;20507;-77
2022/11/04 13:07:43;;;;;;;0.60;0.10;;;13.90;1.00;;;;;;4937082;29;20439;-77
2022/11/04 13:10:19;;;;;;;0.60;0.10;;;13.90;1.00;;;;;;4936870;29;20480;-76
2022/11/04 13:12:48;;;;;;;0.60;0.20;;;14.00;1.00;;;;;;4935914;29;20533;-77
2022/11/04 13:15:21;;;;;;;0.60;0.10;;;14.00;1.00;;;;;;4935844;29;20527;-76
2022/11/04 13:17:55;;;;;;;0.60;0.10;;;14.00;1.00;;;;;;4934113;29;20955;-76
2022/11/04 13:20:31;;;;;;;0.60;0.10;;;14.00;1.00;;;;;;4927158;29;20495;-75
2022/11/04 13:23:04;;;;;;;0.60;0.10;;;14.00;1.00;;;;;;4927596;29;20479;-77
2022/11/04 13:25:39;;;;;;;0.60;0.10;;;14.10;1.00;;;;;;4929720;29;20469;-77
2022/11/04 13:28:12;;;;;;;0.60;0.10;;;14.10;1.00;;;;;;4924448;29;20440;-76
2022/11/04 13:30:49;;;;;;;0.60;0.10;;;14.10;1.00;;;;;;4931276;29;20504;-77
2022/11/04 13:33:26;;;;;;;0.60;0.10;;;14.10;1.00;;;;;;4932327;29;20452;-76
2022/11/04 13:36:01;;;;;;;0.60;0.10;;;14.00;1.00;;;;;;4935644;29;20544;-76
2022/11/04 13:38:35;;;;;;;0.60;0.10;;;14.00;1.00;;;;;;4935244;29;20459;-76
2022/11/04 13:41:15;;;;;;;0.60;0.10;;;;;;;;;;4935947;29;20495;-77
2022/11/04 13:43:53;;;;;;;0.60;0.10;;;13.90;1.00;;;;;;4935427;29;20503;-77
2022/11/04 13:46:29;;;;;;;0.60;0.10;;;14.00;1.00;;;;;;4935277;29;20515;-75
2022/11/04 13:49:04;;;;;;;0.60;0.10;;;14.00;1.00;;;;;;4938906;29;20530;-76
2022/11/04 13:51:44;;;;;;;0.60;0.10;;;14.00;1.00;;;;;;4939338;29;20499;-76
2022/11/04 13:54:29;;;;;;;0.60;0.10;;;14.00;1.00;;;;;;4938893;29;20452;-75
2022/11/04 13:57:09;;;;;;;0.60;0.10;;;14.00;1.00;;;;;;4938648;29;20455;-76
2022/11/04 13:59:37;;;;;;;0.60;0.10;;;14.00;1.00;;;;;;4937016;29;20467;-76
2022/11/04 14:02:38;;;;;;;0.60;0.10;;;14.00;1.00;;;;;;4938211;29;21029;-76
2022/11/04 14:05:46;;;;;;;0.60;0.10;;;14.00;1.00;;;;;;4938350;29;20477;-76
2022/11/04 14:08:15;;;;;;;0.60;0.10;;;14.00;1.00;;;;;;4937826;29;20448;-75
2022/11/04 14:10:57;;;;;;;0.60;0.10;;;14.00;1.00;;;;;;4938131;29;20503;-75
2022/11/04 14:14:16;;;;;;;0.60;0.10;;;14.00;1.00;;;;;;4937563;29;20523;-77
2022/11/04 14:16:45;;;;;;;11.67;8.70;;;14.00;1.00;;;;;;4938289;29;20496;-75
2022/11/04 14:20:01;;;;;;;4.43;4.13;;;13.90;1.00;;;;;;4938702;29;20452;-76
2022/11/04 14:22:36;;;;;;;0.60;0.10;;;13.90;1.00;;;;;;4936953;29;20468;-76
2022/11/04 14:25:21;;;;;;;39.90;35.90;;;13.80;1.00;;;;;;4938972;29;20593;-76
2022/11/04 14:27:52;;;;;;;0.60;0.10;;;13.80;1.00;;;;;;4938678;29;20969;-76
2022/11/04 14:30:32;;;;;;;0.60;0.10;;;13.80;1.00;;;;;;4938297;29;20447;-75
2022/11/04 14:33:03;;;;;;;0.60;0.10;;;13.80;1.00;;;;;;4932698;29;20488;-75
2022/11/04 14:35:32;;;;;;;0.60;0.10;;;13.70;1.00;;;;;;4938208;29;20479;-76
2022/11/04 14:38:07;;;;;;;0.60;0.10;;;13.70;1.00;;;;;;4927789;29;20464;-76
2022/11/04 14:40:48;;;;;;;0.60;0.10;;;13.70;1.00;;;;;;4939405;29;20585;-77
2022/11/04 14:43:31;;;;;;;0.60;0.47;;;13.70;1.00;;;;;;4938011;29;20938;-76
2022/11/04 14:46:01;;;;;;;0.60;0.10;;;13.80;1.00;;;;;;4939179;29;20451;-78
2022/11/04 14:48:30;;;;;;;0.60;0.10;;;13.80;1.00;;;;;;4938997;29;20456;-77
2022/11/04 14:50:58;;;;;;;0.60;0.10;;;13.80;1.00;;;;;;4938536;29;20468;-75
2022/11/04 14:53:31;;;;;;;0.60;0.10;;;13.80;1.00;;;;;;4937765;29;20483;-75
2022/11/04 14:56:15;;;;;;;0.60;0.10;;;13.80;1.00;;;;;;4937836;29;20940;-75
2022/11/04 14:58:58;;;;;;;0.60;0.10;;;13.80;1.00;;;;;;4937307;29;20459;-76
2022/11/04 15:01:28;;;;;;;0.60;0.10;;;13.80;1.00;;;;;;4937809;29;20475;-76
2022/11/04 15:04:07;;;;;;;0.60;0.10;;;13.80;1.00;;;;;;4937352;29;20452;-77
2022/11/04 15:06:40;;;;;;;0.60;0.10;;;13.80;1.00;;;;;;4930549;29;21116;-77
2022/11/04 15:09:24;;;;;;;0.60;0.10;;;11.90;1.00;;;;;;4928230;29;20808;-77
2022/11/04 15:14:55;;;;;;;0.60;0.10;;;13.70;1.00;;;;;;4890468;29;20878;-76
2022/11/04 15:17:26;;;;;;;0.60;0.10;;;13.70;1.00;;;;;;4935883;29;20483;-75
2022/11/04 15:19:56;;;;;;;0.60;0.10;;;13.60;1.00;;;;;;4928381;29;20872;-76
2022/11/04 15:22:24;;;;;;;0.60;0.10;;;13.50;1.00;;;;;;4933615;29;20540;-76
2022/11/04 15:24:55;;;;;;;0.60;0.10;;;13.50;1.00;;;;;;4935253;29;20455;-76
2022/11/04 15:27:28;;;;;;;0.60;0.10;;;11.30;1.00;;;;;;4936135;29;20448;-76
2022/11/04 15:29:58;;;;;;;0.60;0.10;;;13.50;1.00;;;;;;4936925;29;20448;-76
2022/11/04 15:32:27;;;;;;;0.60;0.10;;;13.50;1.00;;;;;;4935988;29;20480;-76
2022/11/04 15:34:56;;;;;;;0.60;0.10;;;13.50;1.00;;;;;;4931560;29;20581;-76
2022/11/04 15:37:27;;;;;;;0.60;0.10;;;13.50;1.00;;;;;;4929615;29;20869;-77
2022/11/04 15:39:58;;;;;;;0.60;0.10;;;13.50;1.00;;;;;;4936496;29;20452;-77
2022/11/04 15:42:38;;;;;;;0.60;0.10;;;13.50;1.00;;;;;;4937396;29;20878;-75
2022/11/04 15:45:35;;;;;;;0.60;0.10;;;13.40;1.00;;;;;;4939868;29;20456;-76
2022/11/04 15:48:29;;;;;;;0.60;0.10;;;13.40;1.00;;;;;;4937120;29;20942;-75
2022/11/04 15:51:11;;;;;;;0.60;0.10;;;13.40;1.00;;;;;;4932748;29;20480;-77
2022/11/04 15:53:51;;;;;;;0.60;0.10;;;13.40;1.00;;;;;;4928767;29;20480;-74
2022/11/04 15:56:23;;;;;;;0.60;0.10;;;13.40;1.00;;;;;;4936450;29;20484;-74
2022/11/04 15:58:52;;;;;;;0.60;0.10;;;13.40;1.00;;;;;;4936059;29;20448;-73
2022/11/04 16:01:20;;;;;;;0.60;0.10;;;;;;;;;;4936301;29;20476;-74
2022/11/04 16:03:51;;;;;;;0.60;0.10;;;13.40;1.00;;;;;;4935306;29;20491;-75
2022/11/04 16:06:32;;;;;;;0.60;0.10;;;13.40;1.00;;;;;;4935499;29;20448;-73
2022/11/04 16:09:04;;;;;;;0.60;0.10;;;13.40;1.00;;;;;;4935763;29;20458;-74
2022/11/04 16:11:33;;;;;;;0.60;0.10;;;13.40;1.00;;;;;;4934444;29;20539;-73
2022/11/04 16:14:25;;;;;;;0.60;0.10;;;13.40;1.00;;;;;;4935495;29;20484;-74
2022/11/04 16:16:53;;;;;;;0.60;0.10;;;13.40;1.00;;;;;;4918556;29;20508;-74
2022/11/04 16:19:25;;;;;;;0.60;0.10;;;13.30;1.00;;;;;;4929089;29;20516;-73
2022/11/04 16:22:00;;;;;;;0.60;0.10;;;13.30;1.00;;;;;;4935141;29;20472;-76
2022/11/04 16:24:31;;;;;;;0.60;0.10;;;13.30;1.00;;;;;;4935660;29;20459;-71
2022/11/04 16:27:01;;;;;;;0.60;0.10;;;13.20;1.00;;;;;;4928557;29;20519;-73
2022/11/04 16:29:33;;;;;;;0.60;0.10;;;13.20;1.00;;;;;;4929691;29;20455;-73
2022/11/04 16:32:26;;;;;;;0.60;0.10;;;13.20;1.00;;;;;;4934117;29;20523;-72
2022/11/04 16:34:57;;;;;;;0.60;0.10;;;13.20;1.00;;;;;;4927967;29;20463;-76
2022/11/04 16:37:26;;;;;;;0.60;0.10;;;13.20;1.00;;;;;;4935303;29;20810;-75
2022/11/04 16:39:54;;;;;;;0.57;0.10;;;13.30;1.00;;;;;;4934507;29;20468;-74
2022/11/04 16:42:23;;;;;;;0.60;0.10;;;13.30;1.00;;;;;;4934660;29;20476;-74
2022/11/04 16:44:56;;;;;;;0.60;0.10;;;13.30;1.00;;;;;;4934894;29;20507;-72
2022/11/04 16:47:24;;;;;;;0.60;0.10;;;13.30;1.00;;;;;;4935497;29;20460;-73
2022/11/04 16:49:52;;;;;;;0.60;0.10;;;13.40;1.00;;;;;;4934895;29;20467;-74
2022/11/04 16:52:24;;;;;;;0.60;0.10;;;13.40;1.00;;;;;;4934085;29;20885;-74
2022/11/04 16:54:55;;;;;;;0.53;0.10;;;13.40;1.00;;;;;;4934746;29;20836;-75
2022/11/04 16:57:25;;;;;;;0.60;0.10;;;13.40;1.00;;;;;;4935128;29;20495;-74
2022/11/04 16:59:54;;;;;;;0.60;0.10;;;13.40;1.00;;;;;;4934884;29;20511;-75
2022/11/04 17:02:27;;;;;;;0.60;0.10;;;13.40;1.00;;;;;;4934149;29;20479;-74
2022/11/04 17:04:55;;;;;;;0.60;0.10;;;13.40;1.00;;;;;;4934107;29;20547;-74
2022/11/04 17:07:24;;;;;;;0.60;0.10;;;13.30;1.00;;;;;;4934150;29;21033;-75
2022/11/04 17:10:16;;;;;;;0.60;0.10;;;13.30;1.00;;;;;;4934349;29;21130;-75
2022/11/04 17:12:45;;;;;;;0.53;0.10;;;13.30;1.00;;;;;;4934595;29;20479;-75
2022/11/04 17:15:15;;;;;;;0.60;0.10;;;13.30;1.00;;;;;;4934517;29;20460;-75
2022/11/04 17:17:43;;;;;;;0.60;0.10;;;13.20;1.00;;;;;;4935232;29;20792;-75
2022/11/04 17:20:12;;;;;;;0.60;0.10;;;13.20;1.00;;;;;;4934138;29;20456;-75
2022/11/04 17:22:41;;;;;;;0.60;0.10;;;13.20;1.00;;;;;;4935383;29;20559;-75
2022/11/04 17:25:16;;;;;;;0.60;0.10;;;13.20;1.00;;;;;;4937927;29;20459;-75
2022/11/04 17:27:45;;;;;;;0.60;0.10;;;13.20;1.00;;;;;;4938274;29;20460;-75
2022/11/04 17:30:15;;;;;;;0.60;0.10;;;13.20;1.00;;;;;;4936117;29;20880;-77
2022/11/04 17:32:43;;;;;;;0.60;0.10;;;13.10;1.00;;;;;;4935375;29;20849;-73
2022/11/04 17:35:12;;;;;;;0.60;0.10;;;13.10;1.00;;;;;;4937592;29;20448;-77
2022/11/04 17:37:40;;;;;;;0.60;0.10;;;13.10;1.00;;;;;;4931929;29;20500;-75
2022/11/04 17:40:12;;;;;;;0.60;0.10;;;13.10;1.00;;;;;;4934269;29;20966;-75
2022/11/04 17:45:27;;;;;;;0.60;0.10;;;13.00;1.00;;;;;;4935273;29;20451;-73
2022/11/04 17:47:54;;;;;;;0.60;0.47;;;13.00;1.00;;;;;;4924500;29;20452;-74
2022/11/04 17:50:22;;;;;;;0.60;0.10;;;13.00;1.00;;;;;;4935335;29;20491;-74
2022/11/04 17:52:50;;;;;;;0.60;0.20;;;13.00;1.00;;;;;;4934448;29;20534;-74
2022/11/04 17:55:18;;;;;;;0.60;0.20;;;13.00;1.00;;;;;;4930519;29;20518;-74